createdAt,value
2023-03-26T00:00:48.057Z,94042
2023-03-26T00:04:13.306Z,94034
2023-03-26T00:07:38.638Z,94044
2023-03-26T00:11:03.895Z,94047
2023-03-26T00:14:29.218Z,94051
2023-03-26T00:17:54.452Z,94051
2023-03-26T00:21:19.688Z,94057
2023-03-26T00:24:45.005Z,94050
2023-03-26T00:28:10.294Z,94060
2023-03-26T00:31:35.586Z,94056
2023-03-26T00:35:00.830Z,94045
2023-03-26T00:38:26.075Z,94053
2023-03-26T00:41:51.314Z,94046
2023-03-26T00:45:16.563Z,94041
2023-03-26T00:48:45.354Z,94037
2023-03-26T00:52:07.033Z,94043
2023-03-26T00:55:32.295Z,94038
2023-03-26T00:58:57.604Z,94035
2023-03-26T01:02:22.888Z,94031
2023-03-26T01:05:48.166Z,94039
2023-03-26T01:09:13.439Z,94034
2023-03-26T01:12:38.731Z,94029
2023-03-26T01:16:04.038Z,94038
2023-03-26T01:19:29.279Z,94038
2023-03-26T01:22:54.543Z,94025
2023-03-26T01:26:19.796Z,94024
2023-03-26T01:29:45.092Z,94029
2023-03-26T01:33:10.446Z,94025
2023-03-26T01:36:35.660Z,94021
2023-03-26T01:40:01.004Z,94026
2023-03-26T01:43:26.211Z,94016
2023-03-26T01:46:51.482Z,94020
2023-03-26T01:50:16.714Z,94015
2023-03-26T01:53:41.951Z,94013
2023-03-26T01:57:07.276Z,94012
2023-03-26T02:00:32.469Z,94009
2023-03-26T02:03:57.768Z,94008
2023-03-26T02:07:23.061Z,94012
2023-03-26T02:10:48.325Z,94007
2023-03-26T02:14:13.648Z,94011
2023-03-26T02:17:38.900Z,94015
2023-03-26T02:21:04.140Z,94017
2023-03-26T02:24:29.382Z,94021
2023-03-26T02:27:54.682Z,94021
2023-03-26T02:31:20.025Z,94012
2023-03-26T02:34:45.181Z,94016
2023-03-26T02:38:10.395Z,94012
2023-03-26T02:41:35.632Z,94012
2023-03-26T02:45:00.957Z,94014
2023-03-26T02:48:26.208Z,94011
2023-03-26T02:51:51.415Z,94006
2023-03-26T02:55:16.717Z,94010
2023-03-26T02:58:41.960Z,94017
2023-03-26T03:02:07.254Z,94017
2023-03-26T03:05:32.482Z,94007
2023-03-26T03:08:57.693Z,94008
2023-03-26T03:12:22.933Z,94009
2023-03-26T03:15:48.172Z,93996
2023-03-26T03:19:13.512Z,93978
2023-03-26T03:22:38.816Z,93984
2023-03-26T03:26:04.007Z,93982
2023-03-26T03:29:29.218Z,93973
2023-03-26T03:32:54.526Z,93972
2023-03-26T03:36:21.690Z,93963
2023-03-26T03:39:45.892Z,93965
2023-03-26T03:43:11.145Z,93966
2023-03-26T03:46:36.513Z,93973
2023-03-26T03:50:01.752Z,93972
2023-03-26T03:53:26.991Z,93973
2023-03-26T03:56:52.300Z,93973
2023-03-26T04:00:17.502Z,93975
2023-03-26T04:03:42.923Z,93976
2023-03-26T04:07:08.076Z,93981
2023-03-26T04:10:33.396Z,93975
2023-03-26T04:13:58.637Z,93974
2023-03-26T04:17:23.947Z,93970
2023-03-26T04:20:49.231Z,93971
2023-03-26T04:24:14.480Z,93976
2023-03-26T04:27:39.737Z,93979
2023-03-26T04:31:05.081Z,93975
2023-03-26T04:34:30.321Z,93983
2023-03-26T04:37:55.573Z,93987
2023-03-26T04:41:20.844Z,93990
2023-03-26T04:44:46.123Z,93989
2023-03-26T04:48:11.417Z,93987
2023-03-26T04:51:36.690Z,93975
2023-03-26T04:55:01.964Z,93978
2023-03-26T04:58:27.206Z,93979
2023-03-26T05:01:52.493Z,93986
2023-03-26T05:05:20.518Z,93981
2023-03-26T05:08:45.768Z,93980
2023-03-26T05:12:11.039Z,93981
2023-03-26T05:15:36.305Z,93976
2023-03-26T05:19:01.544Z,93969
2023-03-26T05:22:26.867Z,93964
2023-03-26T05:25:52.119Z,93962
2023-03-26T05:29:17.420Z,93960
2023-03-26T05:32:42.699Z,93965
2023-03-26T05:36:07.902Z,93965
2023-03-26T05:39:33.184Z,93955
2023-03-26T05:42:58.401Z,93953
2023-03-26T05:46:23.696Z,93949
2023-03-26T05:49:48.927Z,93938
2023-03-26T05:53:14.163Z,93935
2023-03-26T05:56:39.437Z,93944
2023-03-26T06:00:04.633Z,93939
2023-03-26T06:03:29.950Z,93935
2023-03-26T06:06:55.186Z,93925
2023-03-26T06:10:20.549Z,93929
2023-03-26T06:13:45.885Z,93929
2023-03-26T06:17:11.165Z,93932
2023-03-26T06:20:36.464Z,93929
2023-03-26T06:24:01.947Z,93929
2023-03-26T06:27:27.224Z,93926
2023-03-26T06:30:52.876Z,93925
2023-03-26T06:34:17.896Z,93922
2023-03-26T06:37:43.255Z,93917
2023-03-26T06:41:08.603Z,93912
2023-03-26T06:44:33.920Z,93909
2023-03-26T06:47:59.273Z,93901
2023-03-26T06:51:24.538Z,93901
2023-03-26T06:54:50.093Z,93903
2023-03-26T06:58:15.294Z,93898
2023-03-26T07:01:40.546Z,93895
2023-03-26T07:05:05.772Z,93895
2023-03-26T07:08:31.002Z,93892
2023-03-26T07:11:56.361Z,93893
2023-03-26T07:15:21.636Z,93882
2023-03-26T07:18:46.859Z,93878
2023-03-26T07:22:12.162Z,93882
2023-03-26T07:25:37.413Z,93878
2023-03-26T07:29:03.892Z,93871
2023-03-26T07:32:27.981Z,93866
2023-03-26T07:35:53.248Z,93866
2023-03-26T07:39:18.535Z,93868
2023-03-26T07:42:43.738Z,93859
2023-03-26T07:46:09.061Z,93853
2023-03-26T07:49:34.300Z,93837
2023-03-26T07:52:59.659Z,93842
2023-03-26T07:56:24.977Z,93838
2023-03-26T07:59:50.236Z,93839
2023-03-26T08:03:15.599Z,93837
2023-03-26T08:06:40.814Z,93834
2023-03-26T08:10:06.106Z,93830
2023-03-26T08:13:31.444Z,93825
2023-03-26T08:16:56.745Z,93828
2023-03-26T08:20:22.092Z,93830
2023-03-26T08:23:50.638Z,93826
2023-03-26T08:27:12.741Z,93831
2023-03-26T08:30:38.095Z,93837
2023-03-26T08:34:03.385Z,93832
2023-03-26T08:37:28.712Z,93820
2023-03-26T08:40:54.167Z,93818
2023-03-26T08:44:19.323Z,93823
2023-03-26T08:47:44.738Z,93822
2023-03-26T08:51:10.002Z,93815
2023-03-26T08:54:35.336Z,93808
2023-03-26T08:58:00.672Z,93803
2023-03-26T09:01:26.041Z,93791
2023-03-26T09:04:51.383Z,93786
2023-03-26T09:08:16.676Z,93784
2023-03-26T09:11:42.026Z,93779
2023-03-26T09:15:07.383Z,93772
2023-03-26T09:18:32.746Z,93776
2023-03-26T09:21:58.129Z,93772
2023-03-26T09:25:23.491Z,93768
2023-03-26T09:28:48.838Z,93773
2023-03-26T09:32:14.221Z,93772
2023-03-26T09:35:39.580Z,93771
2023-03-26T09:39:04.972Z,93765
2023-03-26T09:42:30.300Z,93763
2023-03-26T09:45:55.679Z,93751
2023-03-26T09:49:21.004Z,93750
2023-03-26T09:52:46.301Z,93751
2023-03-26T09:56:11.698Z,93741
2023-03-26T09:59:36.965Z,93739
2023-03-26T10:03:02.328Z,93731
2023-03-26T10:06:27.677Z,93724
2023-03-26T10:09:53.001Z,93719
2023-03-26T10:13:18.370Z,93720
2023-03-26T10:16:43.701Z,93719
2023-03-26T10:20:09.029Z,93714
2023-03-26T10:23:34.339Z,93712
2023-03-26T10:27:09.508Z,93709
2023-03-26T10:30:25.078Z,93712
2023-03-26T10:33:50.393Z,93713
2023-03-26T10:37:15.756Z,93708
2023-03-26T10:40:41.104Z,93705
2023-03-26T10:44:08.656Z,93699
2023-03-26T10:47:31.873Z,93697
2023-03-26T10:50:57.371Z,93705
2023-03-26T10:54:22.543Z,93701
2023-03-26T10:57:47.912Z,93695
2023-03-26T11:01:13.263Z,93699
2023-03-26T11:04:38.623Z,93700
2023-03-26T11:08:03.970Z,93697
2023-03-26T11:11:29.353Z,93696
2023-03-26T11:14:54.760Z,93696
2023-03-26T11:18:20.183Z,93693
2023-03-26T11:21:45.521Z,93693
2023-03-26T11:25:10.820Z,93691
2023-03-26T11:28:36.180Z,93688
2023-03-26T11:32:01.503Z,93689
2023-03-26T11:35:40.013Z,93694
2023-03-26T11:38:52.220Z,93688
2023-03-26T11:42:17.595Z,93684
2023-03-26T11:45:42.927Z,93680
2023-03-26T11:49:08.230Z,93687
2023-03-26T11:52:33.573Z,93689
2023-03-26T11:55:58.875Z,93684
2023-03-26T11:59:24.196Z,93682
2023-03-26T12:02:49.609Z,93680
2023-03-26T12:06:14.956Z,93684
2023-03-26T12:09:40.319Z,93679
2023-03-26T12:13:05.717Z,93676
2023-03-26T12:16:31.084Z,93672
2023-03-26T12:19:56.407Z,93662
2023-03-26T12:23:21.741Z,93662
2023-03-26T12:26:47.059Z,93659
2023-03-26T12:30:12.429Z,93657
2023-03-26T12:33:37.725Z,93657
2023-03-26T12:37:03.035Z,93653
2023-03-26T12:40:28.356Z,93650
2023-03-26T12:44:45.387Z,93644
2023-03-26T12:47:55.905Z,93644
2023-03-26T12:50:44.263Z,93636
2023-03-26T12:54:09.546Z,93628
2023-03-26T12:57:34.879Z,93632
2023-03-26T13:01:00.201Z,93628
2023-03-26T13:04:25.520Z,93625
2023-03-26T13:07:50.824Z,93620
2023-03-26T13:11:16.130Z,93616
2023-03-26T13:14:41.436Z,93610
2023-03-26T13:18:06.786Z,93603
2023-03-26T13:21:32.095Z,93592
2023-03-26T13:24:57.349Z,93581
2023-03-26T13:28:22.660Z,93576
2023-03-26T13:31:47.973Z,93565
2023-03-26T13:35:13.325Z,93560
2023-03-26T13:38:38.575Z,93557
2023-03-26T13:42:04.220Z,93549
2023-03-26T13:45:29.497Z,93549
2023-03-26T13:48:54.830Z,93539
2023-03-26T13:52:20.118Z,93541
2023-03-26T13:55:45.431Z,93539
2023-03-26T13:59:10.675Z,93546
2023-03-26T14:02:36.038Z,93548
2023-03-26T14:06:01.296Z,93537
2023-03-26T14:09:26.543Z,93545
2023-03-26T14:12:51.994Z,93546
2023-03-26T14:16:17.203Z,93540
2023-03-26T14:19:42.385Z,93536
2023-03-26T14:23:07.676Z,93529
2023-03-26T14:26:32.965Z,93531
2023-03-26T14:29:58.273Z,93528
2023-03-26T14:33:27.120Z,93524
2023-03-26T14:36:48.795Z,93520
2023-03-26T14:40:14.089Z,93524
2023-03-26T14:43:39.348Z,93527
2023-03-26T14:47:04.791Z,93520
2023-03-26T14:50:29.928Z,93517
2023-03-26T14:53:55.200Z,93521
2023-03-26T14:57:20.485Z,93511
2023-03-26T15:00:45.845Z,93503
2023-03-26T15:04:11.090Z,93502
2023-03-26T15:41:04.390Z,93458
2023-03-26T15:44:29.638Z,93444
2023-03-26T15:47:54.985Z,93448
2023-03-26T15:51:20.411Z,93446
2023-03-26T15:54:45.803Z,93459
2023-03-26T15:58:12.392Z,93466
2023-03-26T16:01:38.042Z,93459
2023-03-26T16:05:03.667Z,93460
2023-03-26T16:08:28.935Z,93452
2023-03-26T16:11:54.263Z,93459
2023-03-26T16:15:19.709Z,93461
2023-03-26T16:18:45.018Z,93464
2023-03-26T16:22:10.346Z,93458
2023-03-26T16:25:35.693Z,93458
2023-03-26T16:29:01.271Z,93453
2023-03-26T16:32:26.702Z,93452
2023-03-26T16:35:52.004Z,93460
2023-03-26T16:39:17.385Z,93458
2023-03-26T16:42:42.812Z,93462
2023-03-26T16:46:08.212Z,93478
2023-03-26T16:49:33.594Z,93479
2023-03-26T16:52:58.932Z,93475
2023-03-26T16:56:24.280Z,93479
2023-03-26T16:59:58.379Z,93477
2023-03-26T17:03:14.990Z,93482
2023-03-26T17:06:40.336Z,93473
2023-03-26T17:10:05.731Z,93468
2023-03-26T17:13:31.076Z,93470
2023-03-26T17:16:56.413Z,93470
2023-03-26T17:20:21.778Z,93467
2023-03-26T17:23:47.321Z,93467
2023-03-26T17:27:12.749Z,93462
2023-03-26T17:30:38.286Z,93463
2023-03-26T17:34:03.823Z,93468
2023-03-26T17:37:29.323Z,93478
2023-03-26T17:40:55.225Z,93486
2023-03-26T17:44:20.312Z,93480
2023-03-26T17:47:45.829Z,93483
2023-03-26T17:51:13.798Z,93482
2023-03-26T17:54:40.082Z,93481
2023-03-26T17:58:05.603Z,93484
2023-03-26T18:01:31.117Z,93480
2023-03-26T18:04:56.468Z,93482
2023-03-26T18:08:21.973Z,93477
2023-03-26T18:11:47.573Z,93483
2023-03-26T18:15:13.113Z,93487
2023-03-26T18:18:38.602Z,93482
2023-03-26T18:22:04.166Z,93474
2023-03-26T18:25:29.857Z,93471
2023-03-26T18:28:55.544Z,93471
2023-03-26T18:32:21.266Z,93472
2023-03-26T18:35:46.798Z,93479
2023-03-26T18:39:12.340Z,93482
2023-03-26T18:42:37.974Z,93475
2023-03-26T18:46:03.592Z,93473
2023-03-26T18:49:29.123Z,93476
2023-03-26T18:52:54.674Z,93475
2023-03-26T18:56:20.265Z,93470
2023-03-26T18:59:45.769Z,93471
2023-03-26T19:03:11.326Z,93467
2023-03-26T19:06:37.030Z,93464
2023-03-26T19:10:02.374Z,93457
2023-03-26T19:13:27.834Z,93457
2023-03-26T19:16:53.421Z,93459
2023-03-26T19:20:18.930Z,93457
2023-03-26T19:23:44.459Z,93455
2023-03-26T19:27:10.027Z,93451
2023-03-26T19:30:35.660Z,93452
2023-03-26T19:34:01.117Z,93446
2023-03-26T19:37:26.663Z,93449
2023-03-26T19:40:52.294Z,93446
2023-03-26T19:44:17.644Z,93450
2023-03-26T19:47:48.544Z,93454
2023-03-26T19:51:08.777Z,93468
2023-03-26T19:54:34.312Z,93471
2023-03-26T19:57:59.882Z,93472
2023-03-26T20:01:25.246Z,93468
2023-03-26T20:04:50.498Z,93466
2023-03-26T20:08:15.745Z,93472
2023-03-26T20:11:41.077Z,93471
2023-03-26T20:15:06.275Z,93471
2023-03-26T20:18:31.468Z,93467
2023-03-26T20:21:56.713Z,93466
2023-03-26T20:25:21.974Z,93462
2023-03-26T20:28:47.920Z,93475
2023-03-26T20:32:12.546Z,93481
2023-03-26T20:35:37.792Z,93478
2023-03-26T20:39:03.024Z,93479
2023-03-26T20:42:28.268Z,93472
2023-03-26T20:45:53.508Z,93462
2023-03-26T20:49:18.795Z,93461
2023-03-26T20:52:44.013Z,93457
2023-03-26T20:56:09.321Z,93456
2023-03-26T20:59:34.617Z,93456
2023-03-26T21:02:59.800Z,93450
2023-03-26T21:06:25.247Z,93455
2023-03-26T21:09:50.433Z,93457
2023-03-26T21:13:15.687Z,93466
2023-03-26T21:16:40.991Z,93467
2023-03-26T21:20:06.224Z,93476
2023-03-26T21:23:31.464Z,93485
2023-03-26T21:26:56.690Z,93491
2023-03-26T21:30:21.956Z,93496
2023-03-26T21:33:47.193Z,93493
2023-03-26T21:37:12.429Z,93497
2023-03-26T21:40:40.505Z,93503
2023-03-26T21:44:02.902Z,93504
2023-03-26T21:47:28.162Z,93510
2023-03-26T21:50:53.582Z,93506
2023-03-26T21:54:18.665Z,93511
2023-03-26T21:57:44.009Z,93505
2023-03-26T22:01:09.203Z,93510
2023-03-26T22:04:34.443Z,93504
2023-03-26T22:07:59.686Z,93508
2023-03-26T22:11:24.964Z,93506
2023-03-26T22:14:50.258Z,93519
2023-03-26T22:18:15.487Z,93523
2023-03-26T22:21:40.752Z,93519
2023-03-26T22:25:06.029Z,93519
2023-03-26T22:28:31.288Z,93525
2023-03-26T22:31:56.594Z,93529
2023-03-26T22:35:21.817Z,93537
2023-03-26T22:38:47.071Z,93541
2023-03-26T22:42:12.380Z,93546
2023-03-26T22:45:37.733Z,93542
2023-03-26T22:49:03.067Z,93553
2023-03-26T22:52:28.207Z,93554
2023-03-26T22:55:53.464Z,93561
2023-03-26T22:59:18.730Z,93560
2023-03-26T23:02:44.013Z,93567
2023-03-26T23:06:09.236Z,93575
2023-03-26T23:09:34.445Z,93576
2023-03-26T23:12:59.727Z,93584
2023-03-26T23:16:24.966Z,93586
2023-03-26T23:19:50.165Z,93589
2023-03-26T23:23:15.407Z,93591
2023-03-26T23:26:47.921Z,93592
2023-03-26T23:30:05.835Z,93594
2023-03-26T23:33:31.077Z,93600
2023-03-26T23:36:56.317Z,93608
2023-03-26T23:40:21.578Z,93620
2023-03-26T23:43:54.028Z,93622
2023-03-26T23:47:12.035Z,93629
2023-03-26T23:50:37.288Z,93628
2023-03-26T23:54:02.540Z,93646
2023-03-26T23:57:27.790Z,93648
